N12687 KAWO-KBVS
Flight info
| Callsign | N12687 |
|---|---|
| Flight time | 0h 17m |
| Altitude | 3500 |
| Route | KAWO KBVS |
| Aircraft | C172/L-SBGR/L |
Departure
| Time | 2026-05-06 23:46 |
|---|---|
| Airport | Arlington Municipal Airport (KAWO) |
Arrival
| Time | 2026-05-07 00:03 |
|---|---|
| Airport | Skagit Regional Airport (KBVS) |
| Time | Latitude | Longitude | Altitude | Speed | Heading |
|---|---|---|---|---|---|
| 2026-05-06 23:35 | 48.15964 | -122.15382 | 136 ft | 0 kts | 267° |
| 2026-05-06 23:42 | 48.15953 | -122.15429 | 136 ft | 9 kts | 180° |
| 2026-05-06 23:42 | 48.15894 | -122.15427 | 135 ft | 11 kts | 179° |
| 2026-05-06 23:42 | 48.15804 | -122.15424 | 134 ft | 15 kts | 179° |
| 2026-05-06 23:42 | 48.15695 | -122.15422 | 133 ft | 18 kts | 179° |
| 2026-05-06 23:43 | 48.15580 | -122.15419 | 133 ft | 13 kts | 182° |
| 2026-05-06 23:43 | 48.15561 | -122.15473 | 133 ft | 1 kts | 272° |
| 2026-05-06 23:43 | 48.15560 | -122.15476 | 133 ft | 0 kts | 246° |
| 2026-05-06 23:45 | 48.15560 | -122.15478 | 133 ft | 3 kts | 252° |
| 2026-05-06 23:45 | 48.15563 | -122.15613 | 132 ft | 20 kts | 308° |
| 2026-05-06 23:45 | 48.15734 | -122.15627 | 132 ft | 46 kts | 359° |
| 2026-05-06 23:45 | 48.16209 | -122.15635 | 165 ft | 84 kts | 359° |
| 2026-05-06 23:46 | 48.16791 | -122.15648 | 405 ft | 83 kts | 358° |
| 2026-05-06 23:46 | 48.17381 | -122.15632 | 633 ft | 86 kts | 355° |
| 2026-05-06 23:46 | 48.18001 | -122.15653 | 844 ft | 88 kts | 354° |
| 2026-05-06 23:46 | 48.18584 | -122.15736 | 1111 ft | 84 kts | 335° |
| 2026-05-06 23:47 | 48.18944 | -122.16327 | 1384 ft | 76 kts | 277° |
| 2026-05-06 23:47 | 48.19010 | -122.17138 | 1572 ft | 84 kts | 269° |
| 2026-05-06 23:47 | 48.19033 | -122.18056 | 1759 ft | 90 kts | 267° |
| 2026-05-06 23:47 | 48.19018 | -122.19060 | 1900 ft | 100 kts | 265° |
| 2026-05-06 23:48 | 48.19400 | -122.19799 | 2231 ft | 97 kts | 340° |
| 2026-05-06 23:48 | 48.20051 | -122.19987 | 2496 ft | 94 kts | 350° |
| 2026-05-06 23:48 | 48.20675 | -122.20161 | 2759 ft | 89 kts | 344° |
| 2026-05-06 23:48 | 48.21217 | -122.20440 | 3031 ft | 76 kts | 335° |
| 2026-05-06 23:49 | 48.21677 | -122.20756 | 3232 ft | 73 kts | 328° |
| 2026-05-06 23:49 | 48.22150 | -122.21150 | 3349 ft | 81 kts | 328° |
| 2026-05-06 23:49 | 48.22649 | -122.21592 | 3490 ft | 89 kts | 328° |
| 2026-05-06 23:49 | 48.23286 | -122.22059 | 3478 ft | 112 kts | 333° |
| 2026-05-06 23:50 | 48.24019 | -122.22622 | 3476 ft | 125 kts | 330° |
| 2026-05-06 23:50 | 48.25559 | -122.23916 | 3466 ft | 120 kts | 329° |
| 2026-05-06 23:50 | 48.26257 | -122.24540 | 3483 ft | 115 kts | 328° |
| 2026-05-06 23:51 | 48.26956 | -122.25149 | 3462 ft | 117 kts | 330° |
| 2026-05-06 23:51 | 48.27677 | -122.25696 | 3464 ft | 116 kts | 332° |
| 2026-05-06 23:51 | 48.28391 | -122.26243 | 3459 ft | 117 kts | 329° |
| 2026-05-06 23:51 | 48.29093 | -122.26854 | 3456 ft | 117 kts | 327° |
| 2026-05-06 23:52 | 48.29790 | -122.27468 | 3463 ft | 115 kts | 329° |
| 2026-05-06 23:52 | 48.30486 | -122.28053 | 3458 ft | 114 kts | 327° |
| 2026-05-06 23:52 | 48.31178 | -122.28640 | 3457 ft | 112 kts | 330° |
| 2026-05-06 23:52 | 48.31848 | -122.29203 | 3482 ft | 111 kts | 329° |
| 2026-05-06 23:53 | 48.32522 | -122.29780 | 3507 ft | 113 kts | 327° |
| 2026-05-06 23:53 | 48.33220 | -122.30381 | 3472 ft | 116 kts | 329° |
| 2026-05-06 23:53 | 48.33932 | -122.30967 | 3469 ft | 118 kts | 329° |
| 2026-05-06 23:53 | 48.34637 | -122.31562 | 3468 ft | 119 kts | 328° |
| 2026-05-06 23:54 | 48.35350 | -122.32172 | 3499 ft | 118 kts | 327° |
| 2026-05-06 23:54 | 48.36071 | -122.32789 | 3466 ft | 121 kts | 327° |
| 2026-05-06 23:54 | 48.36806 | -122.33428 | 3440 ft | 122 kts | 329° |
| 2026-05-06 23:54 | 48.37542 | -122.34031 | 3422 ft | 121 kts | 328° |
| 2026-05-06 23:55 | 48.38266 | -122.34635 | 3428 ft | 118 kts | 329° |
| 2026-05-06 23:55 | 48.38978 | -122.35233 | 3466 ft | 117 kts | 327° |
| 2026-05-06 23:55 | 48.39688 | -122.35865 | 3450 ft | 123 kts | 327° |
| 2026-05-06 23:55 | 48.40438 | -122.36507 | 3429 ft | 127 kts | 329° |
| 2026-05-06 23:56 | 48.41203 | -122.37115 | 3448 ft | 124 kts | 330° |
| 2026-05-06 23:56 | 48.41926 | -122.37675 | 3453 ft | 104 kts | 330° |
| 2026-05-06 23:56 | 48.42510 | -122.38108 | 3414 ft | 86 kts | 330° |
| 2026-05-06 23:56 | 48.43059 | -122.38436 | 3288 ft | 87 kts | 347° |
| 2026-05-06 23:57 | 48.43672 | -122.38426 | 3186 ft | 88 kts | 5° |
| 2026-05-06 23:57 | 48.44276 | -122.38332 | 3040 ft | 88 kts | 13° |
| 2026-05-06 23:57 | 48.44850 | -122.38064 | 2896 ft | 86 kts | 21° |
| 2026-05-06 23:57 | 48.45422 | -122.37838 | 2756 ft | 85 kts | 2° |
| 2026-05-06 23:58 | 48.45996 | -122.37998 | 2576 ft | 87 kts | 339° |
| 2026-05-06 23:58 | 48.46572 | -122.38318 | 2406 ft | 87 kts | 338° |
| 2026-05-06 23:58 | 48.47149 | -122.38647 | 2213 ft | 89 kts | 336° |
| 2026-05-06 23:58 | 48.47699 | -122.39090 | 2007 ft | 91 kts | 323° |
| 2026-05-06 23:59 | 48.48187 | -122.39666 | 1838 ft | 88 kts | 315° |
| 2026-05-06 23:59 | 48.48656 | -122.40276 | 1688 ft | 90 kts | 314° |
| 2026-05-06 23:59 | 48.49129 | -122.40901 | 1527 ft | 91 kts | 314° |
| 2026-05-06 23:59 | 48.49611 | -122.41594 | 1488 ft | 96 kts | 312° |
| 2026-05-07 00:00 | 48.50083 | -122.42285 | 1440 ft | 96 kts | 312° |
| 2026-05-07 00:00 | 48.50561 | -122.42979 | 1327 ft | 95 kts | 312° |
| 2026-05-07 00:00 | 48.50872 | -122.43792 | 1231 ft | 88 kts | 274° |
| 2026-05-07 00:00 | 48.50828 | -122.44732 | 1189 ft | 91 kts | 252° |
| 2026-05-07 00:01 | 48.50544 | -122.45579 | 1180 ft | 92 kts | 225° |
| 2026-05-07 00:01 | 48.50072 | -122.46178 | 1149 ft | 85 kts | 219° |
| 2026-05-07 00:01 | 48.49595 | -122.46659 | 1045 ft | 83 kts | 200° |
| 2026-05-07 00:01 | 48.49011 | -122.46641 | 957 ft | 89 kts | 159° |
| 2026-05-07 00:02 | 48.48669 | -122.45880 | 820 ft | 91 kts | 105° |
| 2026-05-07 00:02 | 48.48596 | -122.44935 | 628 ft | 88 kts | 105° |
| 2026-05-07 00:02 | 48.48334 | -122.44201 | 461 ft | 76 kts | 135° |
| 2026-05-07 00:02 | 48.48023 | -122.43570 | 303 ft | 76 kts | 130° |
| 2026-05-07 00:03 | 48.47712 | -122.42943 | 161 ft | 71 kts | 128° |
| 2026-05-07 00:03 | 48.47455 | -122.42409 | 133 ft | 54 kts | 136° |
| 2026-05-07 00:03 | 48.47258 | -122.42018 | 125 ft | 33 kts | 125° |
| 2026-05-07 00:03 | 48.47231 | -122.41863 | 120 ft | 14 kts | 36° |
| 2026-05-07 00:04 | 48.47280 | -122.41811 | 117 ft | 0 kts | 37° |
| 2026-05-07 00:04 | 48.47300 | -122.41789 | 117 ft | 8 kts | 35° |
| 2026-05-07 00:04 | 48.47353 | -122.41720 | 115 ft | 5 kts | 37° |
| 2026-05-07 00:04 | 48.47358 | -122.41714 | 115 ft | 0 kts | 36° |